Neuburg — 5BQJ2 — position and weather

sailwx.info

Track history (hours):
 
Tides and Currents Weather Stations Pressure Air Temp Water Temp Dewpoint Dewpoint Depression Visibility Wind Speed Wind Dir Waves Ship Positions

Neuburg

Last reported at 2014-Jul-19 08:33 UTC. Time now 2014-Jul-23 13:58 UTC.
Position N 36°26' W 002°20'.

Length 142 m; draft 5.4 m.

Type: Other ship. MMSI: 212740000.

Date/timePositionNaut miles runAvg speedWind from/ knotsBaromVisibWave heightAir tempDewpointWater temp
2014-Jul-19 08:33N 36°26' W 002°20'1815.3
2014-Jul-19 07:21N 36°34' W 001°59'1316.0
2014-Jul-19 06:33N 36°43' W 001°47'1616.1
2014-Jul-19 05:33N 36°54' W 001°32'1716.6
2014-Jul-19 04:30N 37°05' W 001°16'1616.9
2014-Jul-19 03:33N 37°15' W 001°00'2422.6
2014-Jul-19 02:30N 37°30' W 000°38'1515.9
2014-Jul-19 01:33N 37°44' W 000°30'1816.7
2014-Jul-19 00:30N 38°01' W 000°25'17 0.8
2014-Jul-18 04:31N 38°18' W 000°28'1212.6
2014-Jul-18 03:33N 38°06' W 000°24'2115.5
2014-Jul-18 02:13N 37°46' W 000°27'1015.4
2014-Jul-18 01:33N 37°36' W 000°30'3315.3
2014-Jul-17 23:24N 37°13' W 000°59'3615.7
2014-Jul-17 21:07N 36°49' W 001°33'1016.0
2014-Jul-17 20:31N 36°43' W 001°42'1515.8
2014-Jul-17 19:33N 36°32' W 001°56'2215.4
2014-Jul-17 18:08N 36°21' W 002°19'14516.6
2014-Jul-17 09:24N 35°59' W 005°16'  
2014-Jul-13 21:08N 31°01' W 011°18'1118.0
2014-Jul-13 20:32N 31°09' W 011°10'1817.9
2014-Jul-13 19:33N 31°23' W 010°57'1817.5
2014-Jul-13 18:33N 31°36' W 010°43'25416.9
2014-Jul-13 03:33N 34°43' W 007°18'1616.5
2014-Jul-13 02:33N 34°56' W 007°05'1615.6
2014-Jul-13 01:33N 35°07' W 006°52'1616.3
2014-Jul-13 00:33N 35°19' W 006°38'1616.1
2014-Jul-12 23:33N 35°31' W 006°25'30415.2
2014-Jul-12 03:32N 37°31' W 000°38'1616.2
2014-Jul-12 02:33N 37°46' W 000°30'1716.9
2014-Jul-12 01:33N 38°02' W 000°25'10 0.5
2014-Jul-11 06:30N 38°12' W 000°24'1616.5
2014-Jul-11 05:33N 37°57' W 000°27'1716.9
2014-Jul-11 04:33N 37°40' W 000°29'25416.5
2014-Jul-10 13:07N 35°58' W 005°20'9616.2
2014-Jul-10 07:11N 35°07' W 006°60'1116.9
2014-Jul-10 06:32N 34°59' W 007°10'  
Track history (hours):
 
Tides and Currents Weather Stations Pressure Air Temp Water Temp Dewpoint Dewpoint Depression Visibility Wind Speed Wind Dir Waves Ship Positions

Neuburg

Last reported at 2014-Jul-19 08:33 UTC. Time now 2014-Jul-23 13:58 UTC.
Position N 36°26' W 002°20'.

Length 142 m; draft 5.4 m.

Type: Other ship. MMSI: 212740000.

Date/timePositionNaut miles runAvg speedWind from/ knotsBaromVisibWave heightAir tempDewpointWater temp
2014-Jul-19 08:33N 36°26' W 002°20'1815.3
2014-Jul-19 07:21N 36°34' W 001°59'1316.0
2014-Jul-19 06:33N 36°43' W 001°47'1616.1
2014-Jul-19 05:33N 36°54' W 001°32'1716.6
2014-Jul-19 04:30N 37°05' W 001°16'1616.9
2014-Jul-19 03:33N 37°15' W 001°00'2422.6
2014-Jul-19 02:30N 37°30' W 000°38'1515.9
2014-Jul-19 01:33N 37°44' W 000°30'1816.7
2014-Jul-19 00:30N 38°01' W 000°25'17 0.8
2014-Jul-18 04:31N 38°18' W 000°28'1212.6
2014-Jul-18 03:33N 38°06' W 000°24'2115.5
2014-Jul-18 02:13N 37°46' W 000°27'1015.4
2014-Jul-18 01:33N 37°36' W 000°30'3315.3
2014-Jul-17 23:24N 37°13' W 000°59'3615.7
2014-Jul-17 21:07N 36°49' W 001°33'1016.0
2014-Jul-17 20:31N 36°43' W 001°42'1515.8
2014-Jul-17 19:33N 36°32' W 001°56'2215.4
2014-Jul-17 18:08N 36°21' W 002°19'14516.6
2014-Jul-17 09:24N 35°59' W 005°16'  
2014-Jul-13 21:08N 31°01' W 011°18'1118.0
2014-Jul-13 20:32N 31°09' W 011°10'1817.9
2014-Jul-13 19:33N 31°23' W 010°57'1817.5
2014-Jul-13 18:33N 31°36' W 010°43'25416.9
2014-Jul-13 03:33N 34°43' W 007°18'1616.5
2014-Jul-13 02:33N 34°56' W 007°05'1615.6
2014-Jul-13 01:33N 35°07' W 006°52'1616.3
2014-Jul-13 00:33N 35°19' W 006°38'1616.1
2014-Jul-12 23:33N 35°31' W 006°25'30415.2
2014-Jul-12 03:32N 37°31' W 000°38'1616.2
2014-Jul-12 02:33N 37°46' W 000°30'1716.9
2014-Jul-12 01:33N 38°02' W 000°25'10 0.5
2014-Jul-11 06:30N 38°12' W 000°24'1616.5
2014-Jul-11 05:33N 37°57' W 000°27'1716.9
2014-Jul-11 04:33N 37°40' W 000°29'25416.5
2014-Jul-10 13:07N 35°58' W 005°20'9616.2
2014-Jul-10 07:11N 35°07' W 006°60'1116.9
2014-Jul-10 06:32N 34°59' W 007°10'  

Dump ship's entire track history